Time;durP1;ratioP1;P1;durP2;ratioP2;P2;SDS_P1;SDS_P2;PMS_P1;PMS_P2;Temp;Humidity;BMP_temperature;BMP_pressure;BME280_temperature;BME280_humidity;BME280_pressure;Samples;Min_cycle;Max_cycle;Signal;HPM_P1;HPM_P2
2022/11/14 00:01:28;;;;;;;6.07;5.57;;;;;;;;;;4977865;28;43509;-61
2022/11/14 00:04:15;;;;;;;6.28;5.68;;;;;;;;;;4980205;28;43438;-61
2022/11/14 00:07:01;;;;;;;6.10;5.55;;;;;;;;;;4975140;28;43542;-61
2022/11/14 00:09:48;;;;;;;5.90;5.50;;;;;;;;;;4976650;28;43879;-61
2022/11/14 00:12:34;;;;;;;5.65;5.25;;;;;;;;;;4978506;28;43999;-61
2022/11/14 00:15:21;;;;;;;6.00;5.50;;;;;;;;;;4977266;28;43485;-61
2022/11/14 00:18:07;;;;;;;5.57;5.10;;;;;;;;;;4979973;28;43721;-61
2022/11/14 00:20:54;;;;;;;5.35;4.85;;;;;;;;;;4975910;28;44762;-61
2022/11/14 00:23:41;;;;;;;5.68;5.18;;;;;;;;;;4975651;28;43911;-61
2022/11/14 00:26:28;;;;;;;5.50;5.10;;;;;;;;;;4976946;28;43434;-60
2022/11/14 00:29:15;;;;;;;6.13;5.63;;;;;;;;;;4977315;28;43442;-61
2022/11/14 00:32:01;;;;;;;5.43;4.93;;;;;;;;;;4978817;28;44992;-60
2022/11/14 00:34:48;;;;;;;5.45;5.05;;;;;;;;;;4976723;28;43944;-60
2022/11/14 00:37:35;;;;;;;5.90;5.40;;;;;;;;;;4979525;28;43530;-60
2022/11/14 00:40:21;;;;;;;5.28;4.78;;;;;;;;;;4974606;28;43461;-61
2022/11/14 00:43:08;;;;;;;5.43;5.03;;;;;;;;;;4976719;28;43639;-61
2022/11/14 00:45:54;;;;;;;6.07;5.45;;;;;;;;;;4977434;28;43495;-61
2022/11/14 00:48:41;;;;;;;5.72;5.22;;;;;;;;;;4976006;28;43502;-60
2022/11/14 00:51:27;;;;;;;5.80;5.30;;;;;;;;;;4979941;28;43439;-61
2022/11/14 00:54:13;;;;;;;5.80;5.30;;;;;;;;;;4974577;28;44771;-61
2022/11/14 00:56:59;;;;;;;6.07;5.57;;;;;;;;;;4979965;28;43514;-60
2022/11/14 00:59:46;;;;;;;5.78;5.28;;;;;;;;;;4976956;28;43353;-61
2022/11/14 01:02:32;;;;;;;5.70;5.20;;;;;;;;;;4973596;28;43511;-60
2022/11/14 01:05:18;;;;;;;6.07;5.57;;;;;;;;;;4979059;28;44059;-61
2022/11/14 01:08:05;;;;;;;6.07;5.57;;;;;;;;;;4974941;28;44117;-61
2022/11/14 01:10:51;;;;;;;6.10;5.60;;;;;;;;;;4976023;28;43467;-61
2022/11/14 01:13:38;;;;;;;6.15;5.40;;;;;;;;;;4972427;28;43419;-61
2022/11/14 01:16:25;;;;;;;5.93;5.43;;;;;;;;;;4973965;28;44179;-61
2022/11/14 01:19:11;;;;;;;5.78;5.28;;;;;;;;;;4978615;28;43391;-61
2022/11/14 01:21:57;;;;;;;6.57;5.97;;;;;;;;;;4977161;28;43511;-61
2022/11/14 01:24:51;;;;;;;6.10;5.50;;;;;;;;;;4972610;28;43546;-61
2022/11/14 01:27:37;;;;;;;6.47;5.88;;;;;;;;;;4973822;28;43879;-61
2022/11/14 01:30:24;;;;;;;5.90;5.43;;;;;;;;;;4976342;28;43409;-61
2022/11/14 01:33:10;;;;;;;5.88;5.38;;;;;;;;;;4976924;28;43377;-61
2022/11/14 01:35:59;;;;;;;6.82;6.22;;;;;;;;;;4972009;28;43620;-61
2022/11/14 01:38:46;;;;;;;6.93;6.32;;;;;;;;;;4979103;28;44820;-61
2022/11/14 01:41:32;;;;;;;6.30;5.80;;;;;;;;;;4974885;28;43955;-61
2022/11/14 01:44:38;;;;;;;6.90;6.30;;;;;;;;;;4975615;28;43354;-61
2022/11/14 01:47:30;;;;;;;7.07;6.47;;;;;;;;;;4975965;28;43513;-61
2022/11/14 01:50:16;;;;;;;7.07;6.47;;;;;;;;;;4975348;28;44827;-61
2022/11/14 01:53:02;;;;;;;6.82;6.22;;;;;;;;;;4972486;28;43592;-61
2022/11/14 01:55:49;;;;;;;6.60;6.10;;;;;;;;;;4975044;28;43359;-61
2022/11/14 01:58:36;;;;;;;6.95;6.35;;;;;;;;;;4978539;28;43636;-61
2022/11/14 02:01:24;;;;;;;6.32;5.82;;;;;;;;;;4970949;28;44059;-61
2022/11/14 02:04:13;;;;;;;6.95;6.35;;;;;;;;;;4978198;28;43518;-61
2022/11/14 02:07:02;;;;;;;7.05;6.45;;;;;;;;;;4956441;28;43400;-61
2022/11/14 02:09:49;;;;;;;7.20;6.60;;;;;;;;;;4975064;28;43542;-60
2022/11/14 02:12:35;;;;;;;6.78;6.28;;;;;;;;;;4976548;28;43806;-61
2022/11/14 02:15:23;;;;;;;7.47;6.88;;;;;;;;;;4978449;28;43570;-61
2022/11/14 02:18:11;;;;;;;7.20;6.60;;;;;;;;;;4978441;28;43478;-61
2022/11/14 02:20:57;;;;;;;7.97;7.28;;;;;;;;;;4974839;28;43463;-60
2022/11/14 02:23:44;;;;;;;7.35;6.57;;;;;;;;;;4975889;28;43725;-60
2022/11/14 02:26:30;;;;;;;7.45;6.85;;;;;;;;;;4972809;28;43528;-61
2022/11/14 02:29:21;;;;;;;7.68;7.07;;;;;;;;;;4976077;28;43406;-61
2022/11/14 02:32:08;;;;;;;7.75;7.15;;;;;;;;;;4975228;28;43481;-61
2022/11/14 02:34:56;;;;;;;7.22;6.63;;;;;;;;;;4978241;28;44863;-61
2022/11/14 02:37:42;;;;;;;7.03;6.53;;;;;;;;;;4956674;28;43530;-61
2022/11/14 02:40:28;;;;;;;7.38;6.78;;;;;;;;;;4977618;28;43432;-61
2022/11/14 02:43:15;;;;;;;7.63;6.93;;;;;;;;;;4978765;28;43497;-61
2022/11/14 02:46:01;;;;;;;7.90;7.30;;;;;;;;;;4978305;28;43873;-61
2022/11/14 02:48:50;;;;;;;7.68;7.07;;;;;;;;;;4978651;28;43671;-61
2022/11/14 02:51:37;;;;;;;7.55;6.88;;;;;;;;;;4974921;28;43519;-61
2022/11/14 02:54:24;;;;;;;7.70;7.00;;;;;;;;;;4983802;28;43490;-61
2022/11/14 02:57:10;;;;;;;7.72;7.03;;;;;;;;;;4974257;28;44814;-61
2022/11/14 02:59:56;;;;;;;7.65;7.05;;;;;;;;;;4974876;28;43452;-60
2022/11/14 03:02:43;;;;;;;7.22;6.63;;;;;;;;;;4978213;28;43463;-61
2022/11/14 03:05:29;;;;;;;8.10;7.40;;;;;;;;;;4979732;28;43466;-61
2022/11/14 03:08:16;;;;;;;7.68;7.07;;;;;;;;;;4978243;28;45010;-61
2022/11/14 03:11:03;;;;;;;7.90;7.30;;;;;;;;;;4974443;28;43481;-61
2022/11/14 03:13:50;;;;;;;7.55;6.95;;;;;;;;;;4975978;28;43366;-61
2022/11/14 03:16:36;;;;;;;7.55;6.95;;;;;;;;;;4978623;28;43613;-61
2022/11/14 03:19:23;;;;;;;7.85;7.15;;;;;;;;;;4978742;28;44052;-61
2022/11/14 03:22:09;;;;;;;8.07;7.38;;;;;;;;;;4978272;28;43776;-61
2022/11/14 03:24:56;;;;;;;7.47;6.88;;;;;;;;;;4980534;28;44047;-61
2022/11/14 03:27:43;;;;;;;8.07;7.38;;;;;;;;;;4976840;28;43533;-61
2022/11/14 03:30:30;;;;;;;7.45;6.82;;;;;;;;;;4977574;28;44956;-61
2022/11/14 03:33:16;;;;;;;8.07;7.38;;;;;;;;;;4969014;28;43398;-61
2022/11/14 03:36:03;;;;;;;7.35;6.75;;;;;;;;;;4977794;28;43517;-60
2022/11/14 03:38:50;;;;;;;7.85;7.25;;;;;;;;;;4981018;28;43465;-60
2022/11/14 03:41:36;;;;;;;7.78;7.18;;;;;;;;;;4976998;28;44947;-61
2022/11/14 03:44:23;;;;;;;7.72;7.03;;;;;;;;;;4979189;28;43445;-61
2022/11/14 03:47:09;;;;;;;7.90;7.20;;;;;;;;;;4974393;28;43478;-61
2022/11/14 03:49:56;;;;;;;7.28;6.68;;;;;;;;;;4977163;28;43548;-61
2022/11/14 03:52:42;;;;;;;7.18;6.65;;;;;;;;;;4979846;28;44820;-61
2022/11/14 03:55:29;;;;;;;7.38;6.80;;;;;;;;;;4981251;28;43433;-60
2022/11/14 03:58:15;;;;;;;7.85;7.25;;;;;;;;;;4973811;28;43526;-61
2022/11/14 04:01:02;;;;;;;7.97;7.28;;;;;;;;;;4975050;28;43514;-61
2022/11/14 04:03:49;;;;;;;8.05;7.43;;;;;;;;;;4976972;28;45126;-61
2022/11/14 04:06:35;;;;;;;8.10;7.40;;;;;;;;;;4979033;28;44048;-61
2022/11/14 04:09:22;;;;;;;7.80;7.20;;;;;;;;;;4973039;28;43431;-61
2022/11/14 04:12:08;;;;;;;8.10;7.40;;;;;;;;;;4980527;28;43441;-60
2022/11/14 04:15:00;;;;;;;8.38;7.68;;;;;;;;;;4976349;28;43787;-60
2022/11/14 04:17:47;;;;;;;8.40;7.70;;;;;;;;;;4973509;28;44075;-60
2022/11/14 04:20:33;;;;;;;8.43;7.72;;;;;;;;;;4974566;28;43580;-61
2022/11/14 04:23:20;;;;;;;7.88;7.28;;;;;;;;;;4976635;28;43557;-61
2022/11/14 04:26:06;;;;;;;8.52;7.82;;;;;;;;;;4979502;28;44707;-61
2022/11/14 04:28:52;;;;;;;9.23;8.43;;;;;;;;;;4976500;28;43430;-61
2022/11/14 04:31:39;;;;;;;8.38;7.63;;;;;;;;;;4980347;28;43451;-61
2022/11/14 04:34:26;;;;;;;8.15;7.45;;;;;;;;;;4974666;28;43387;-61
2022/11/14 04:37:12;;;;;;;8.85;8.05;;;;;;;;;;4976459;28;44996;-61
2022/11/14 04:40:01;;;;;;;8.55;7.82;;;;;;;;;;4978318;28;43418;-61
2022/11/14 04:42:48;;;;;;;9.18;8.30;;;;;;;;;;4973473;28;43498;-60
2022/11/14 04:45:35;;;;;;;8.95;8.15;;;;;;;;;;4979765;28;43583;-60
2022/11/14 04:48:22;;;;;;;8.38;7.68;;;;;;;;;;4979070;28;44026;-61
2022/11/14 04:51:08;;;;;;;8.68;7.97;;;;;;;;;;4975889;28;43427;-61
2022/11/14 04:53:55;;;;;;;8.02;7.43;;;;;;;;;;4976173;28;43473;-61
2022/11/14 04:56:41;;;;;;;8.85;8.07;;;;;;;;;;4976154;28;43469;-61
2022/11/14 04:59:27;;;;;;;8.45;7.75;;;;;;;;;;4979824;28;43878;-61
2022/11/14 05:02:14;;;;;;;8.50;7.80;;;;;;;;;;4976989;28;43350;-61
2022/11/14 05:05:01;;;;;;;8.45;7.75;;;;;;;;;;4961498;28;43426;-61
2022/11/14 05:07:47;;;;;;;8.40;7.70;;;;;;;;;;4973571;28;43534;-61
2022/11/14 05:10:34;;;;;;;8.75;8.07;;;;;;;;;;4976846;28;45028;-61
2022/11/14 05:13:20;;;;;;;8.48;7.78;;;;;;;;;;4978126;28;43431;-61
2022/11/14 05:16:07;;;;;;;9.02;8.23;;;;;;;;;;4976719;28;43516;-61
2022/11/14 05:18:54;;;;;;;9.13;8.43;;;;;;;;;;4971719;28;43530;-61
2022/11/14 05:21:40;;;;;;;8.63;7.93;;;;;;;;;;4974204;28;43892;-61
2022/11/14 05:24:27;;;;;;;8.55;7.85;;;;;;;;;;4958936;28;43427;-61
2022/11/14 05:27:14;;;;;;;8.13;7.47;;;;;;;;;;4976872;28;43407;-61
2022/11/14 05:30:00;;;;;;;8.82;8.05;;;;;;;;;;4979732;28;43430;-61
2022/11/14 05:32:47;;;;;;;8.98;8.18;;;;;;;;;;4978609;28;43780;-61
2022/11/14 05:35:33;;;;;;;9.20;8.43;;;;;;;;;;4975116;28;44269;-61
2022/11/14 05:38:20;;;;;;;8.82;8.13;;;;;;;;;;4976546;28;43488;-61
2022/11/14 05:41:10;;;;;;;9.68;8.77;;;;;;;;;;4972156;28;43446;-61
2022/11/14 05:43:57;;;;;;;9.27;8.47;;;;;;;;;;4973580;28;43870;-61
2022/11/14 05:46:44;;;;;;;9.38;8.60;;;;;;;;;;4971517;28;43694;-61
2022/11/14 05:49:31;;;;;;;9.60;8.80;;;;;;;;;;4963594;28;43359;-61
2022/11/14 05:52:17;;;;;;;9.70;8.90;;;;;;;;;;4980995;28;43612;-61
2022/11/14 05:55:04;;;;;;;9.43;8.63;;;;;;;;;;4974638;28;44053;-61
2022/11/14 05:57:50;;;;;;;10.82;9.93;;;;;;;;;;4974405;28;43831;-61
2022/11/14 06:00:37;;;;;;;9.73;8.82;;;;;;;;;;4960145;28;43482;-61
2022/11/14 06:03:37;;;;;;;10.98;9.98;;;;;;;;;;4978685;28;43549;-61
2022/11/14 06:06:24;;;;;;;11.13;10.15;;;;;;;;;;4979827;28;44990;-61
2022/11/14 06:09:11;;;;;;;11.57;10.57;;;;;;;;;;4978903;28;43458;-61
2022/11/14 06:11:57;;;;;;;11.55;10.55;;;;;;;;;;4981251;28;43593;-61
2022/11/14 06:14:43;;;;;;;12.45;11.25;;;;;;;;;;4977613;28;43462;-61
2022/11/14 06:17:30;;;;;;;12.38;11.27;;;;;;;;;;4979040;28;43877;-61
2022/11/14 06:20:17;;;;;;;11.73;10.73;;;;;;;;;;4981388;28;43412;-61
2022/11/14 06:23:03;;;;;;;13.32;12.07;;;;;;;;;;4977512;28;43404;-61
2022/11/14 06:25:49;;;;;;;13.20;12.00;;;;;;;;;;4980275;28;43681;-61
2022/11/14 06:28:36;;;;;;;12.05;10.95;;;;;;;;;;4971660;28;43762;-61
2022/11/14 06:31:23;;;;;;;13.30;12.13;;;;;;;;;;4982967;28;43504;-61
2022/11/14 06:34:11;;;;;;;12.95;11.85;;;;;;;;;;4974090;28;43383;-61
2022/11/14 06:36:58;;;;;;;13.13;12.02;;;;;;;;;;4980630;28;43574;-60
2022/11/14 06:39:44;;;;;;;13.10;11.90;;;;;;;;;;4982890;28;44996;-60
2022/11/14 06:42:31;;;;;;;13.15;11.95;;;;;;;;;;4977905;28;43510;-61
2022/11/14 06:45:17;;;;;;;13.77;12.48;;;;;;;;;;4981290;28;43410;-61
2022/11/14 06:48:04;;;;;;;13.15;12.05;;;;;;;;;;4979523;28;43454;-62
2022/11/14 06:50:52;;;;;;;13.30;12.13;;;;;;;;;;4975902;28;43654;-61
2022/11/14 06:53:39;;;;;;;13.07;11.93;;;;;;;;;;4974829;28;43921;-62
2022/11/14 06:56:25;;;;;;;13.20;12.10;;;;;;;;;;4980075;28;43461;-61
2022/11/14 06:59:12;;;;;;;13.90;12.70;;;;;;;;;;4981620;28;44046;-61
2022/11/14 07:01:58;;;;;;;14.35;13.07;;;;;;;;;;4975920;28;44807;-61
2022/11/14 07:04:44;;;;;;;13.85;12.65;;;;;;;;;;4977720;28;43550;-62
2022/11/14 07:07:31;;;;;;;13.20;12.00;;;;;;;;;;4983907;28;43485;-61
2022/11/14 07:10:17;;;;;;;12.98;11.77;;;;;;;;;;4976828;28;43445;-62
2022/11/14 07:13:04;;;;;;;13.20;12.02;;;;;;;;;;4980463;28;45296;-61
2022/11/14 07:15:51;;;;;;;13.20;11.90;;;;;;;;;;4980256;28;43476;-62
2022/11/14 07:18:38;;;;;;;12.23;10.85;;;;;;;;;;4976804;28;43468;-61
2022/11/14 07:21:25;;;;;;;12.75;11.55;;;;;;;;;;4978663;28;43426;-61
2022/11/14 07:24:12;;;;;;;12.95;11.75;;;;;;;;;;4977670;28;43980;-61
2022/11/14 07:26:58;;;;;;;12.38;11.18;;;;;;;;;;4979958;28;43906;-60
2022/11/14 07:29:45;;;;;;;12.13;11.02;;;;;;;;;;4972563;28;43412;-61
2022/11/14 07:32:31;;;;;;;11.73;10.60;;;;;;;;;;4980802;28;43547;-61
2022/11/14 07:35:18;;;;;;;11.52;10.43;;;;;;;;;;4980966;28;43878;-62
2022/11/14 07:38:05;;;;;;;11.30;10.27;;;;;;;;;;4977002;28;43561;-62
2022/11/14 07:40:53;;;;;;;11.65;10.55;;;;;;;;;;4979472;28;43390;-61
2022/11/14 07:43:45;;;;;;;10.52;9.50;;;;;;;;;;4978221;28;43577;-61
2022/11/14 07:46:31;;;;;;;10.50;9.40;;;;;;;;;;4986373;28;43865;-61
2022/11/14 07:49:18;;;;;;;11.95;10.65;;;;;;;;;;4976377;28;44293;-62
2022/11/14 07:52:04;;;;;;;11.38;10.07;;;;;;;;;;4978922;28;43461;-63
2022/11/14 07:54:51;;;;;;;11.68;10.57;;;;;;;;;;4976073;28;43497;-61
2022/11/14 07:57:37;;;;;;;10.20;9.15;;;;;;;;;;4978032;28;43899;-61
2022/11/14 08:00:30;;;;;;;11.43;10.43;;;;;;;;;;4975760;28;43467;-60
2022/11/14 08:03:16;;;;;;;10.15;9.15;;;;;;;;;;4980368;28;43470;-60
2022/11/14 08:06:04;;;;;;;10.57;9.48;;;;;;;;;;4974364;28;43626;-61
2022/11/14 08:08:50;;;;;;;10.85;9.75;;;;;;;;;;4975217;28;43888;-61
2022/11/14 08:11:46;;;;;;;10.60;9.50;;;;;;;;;;4972858;28;43990;-61
2022/11/14 08:14:33;;;;;;;9.73;8.75;;;;;;;;;;4976367;28;43470;-59
2022/11/14 08:17:20;;;;;;;10.95;9.95;;;;;;;;;;4977444;28;43592;-62
2022/11/14 08:20:08;;;;;;;9.93;8.93;;;;;;;;;;4096590;28;10001013;-61
2022/11/14 08:22:54;;;;;;;9.48;8.50;;;;;;;;;;4967489;28;43494;-60
2022/11/14 08:25:41;;;;;;;10.57;9.57;;;;;;;;;;4976765;28;43802;-61
2022/11/14 08:28:28;;;;;;;9.88;8.90;;;;;;;;;;4968837;28;44105;-61
2022/11/14 08:31:15;;;;;;;10.65;9.65;;;;;;;;;;4972437;28;43483;-60
2022/11/14 08:34:01;;;;;;;9.50;8.25;;;;;;;;;;4971114;28;43498;-64
2022/11/14 08:36:48;;;;;;;9.82;8.52;;;;;;;;;;4969164;28;44026;-63
2022/11/14 08:39:35;;;;;;;11.25;8.45;;;;;;;;;;4975838;28;43513;-62
2022/11/14 08:42:21;;;;;;;11.23;10.13;;;;;;;;;;4979552;28;43475;-63
2022/11/14 08:45:08;;;;;;;9.77;8.88;;;;;;;;;;4957545;28;43550;-65
2022/11/14 08:47:54;;;;;;;12.98;9.85;;;;;;;;;;4971847;28;44065;-61
2022/11/14 08:50:41;;;;;;;10.52;9.52;;;;;;;;;;4974184;28;43491;-62
2022/11/14 08:53:28;;;;;;;10.02;9.02;;;;;;;;;;4970639;28;43485;-63
2022/11/14 08:56:14;;;;;;;10.25;9.18;;;;;;;;;;4971271;28;43603;-62
2022/11/14 08:59:03;;;;;;;11.38;9.52;;;;;;;;;;4971012;28;43799;-63
2022/11/14 09:01:50;;;;;;;11.15;10.05;;;;;;;;;;4971347;28;43419;-62
2022/11/14 09:04:37;;;;;;;10.23;9.23;;;;;;;;;;4973253;28;43613;-62
2022/11/14 09:07:23;;;;;;;9.80;8.80;;;;;;;;;;4972522;28;43856;-61
2022/11/14 09:10:10;;;;;;;10.23;9.32;;;;;;;;;;4971912;28;44959;-60
2022/11/14 09:12:57;;;;;;;10.30;9.40;;;;;;;;;;4975633;28;43487;-62
2022/11/14 09:15:43;;;;;;;13.52;9.23;;;;;;;;;;4971440;28;43487;-62
2022/11/14 09:18:30;;;;;;;10.23;9.23;;;;;;;;;;4975687;28;43513;-61
2022/11/14 09:21:17;;;;;;;10.00;9.00;;;;;;;;;;4974139;28;43869;-62
2022/11/14 09:24:04;;;;;;;9.98;8.98;;;;;;;;;;4977059;28;43795;-62
2022/11/14 09:26:51;;;;;;;11.93;8.43;;;;;;;;;;4978914;28;43437;-62
2022/11/14 09:29:42;;;;;;;9.93;9.00;;;;;;;;;;4976042;28;44017;-63
2022/11/14 09:32:29;;;;;;;9.88;8.82;;;;;;;;;;4974266;28;44823;-62
2022/11/14 09:35:15;;;;;;;10.40;9.40;;;;;;;;;;4975827;28;44077;-62
2022/11/14 09:38:03;;;;;;;11.15;10.15;;;;;;;;;;4975533;28;43514;-61
2022/11/14 09:40:52;;;;;;;10.82;9.77;;;;;;;;;;4982513;28;43531;-61
2022/11/14 09:43:44;;;;;;;11.02;10.02;;;;;;;;;;4975605;28;44033;-60
2022/11/14 09:46:37;;;;;;;10.10;9.10;;;;;;;;;;4978524;28;43822;-61
2022/11/14 09:49:26;;;;;;;10.15;9.15;;;;;;;;;;4977621;28;43502;-60
2022/11/14 09:52:13;;;;;;;10.48;9.52;;;;;;;;;;4976024;28;43466;-61
2022/11/14 09:55:02;;;;;;;11.00;9.18;;;;;;;;;;4972727;28;44936;-60
2022/11/14 09:57:48;;;;;;;10.98;9.95;;;;;;;;;;4974283;28;43717;-61
2022/11/14 10:00:55;;;;;;;13.30;11.10;;;;;;;;;;4980024;28;43403;-61
2022/11/14 10:03:52;;;;;;;13.13;11.80;;;;;;;;;;4970174;28;43669;-60
2022/11/14 10:06:54;;;;;;;13.82;11.48;;;;;;;;;;4966219;28;43794;-60
2022/11/14 10:10:04;;;;;;;15.70;13.07;;;;;;;;;;4977341;28;43799;-60
2022/11/14 10:13:09;;;;;;;19.02;13.80;;;;;;;;;;4972806;28;43501;-60
2022/11/14 10:16:07;;;;;;;25.08;16.30;;;;;;;;;;4971807;28;43536;-61
2022/11/14 10:19:02;;;;;;;21.88;15.63;;;;;;;;;;4975246;28;43884;-60
2022/11/14 10:21:51;;;;;;;23.95;16.52;;;;;;;;;;4977461;28;43486;-60
2022/11/14 10:24:56;;;;;;;22.85;16.98;;;;;;;;;;4978895;28;43494;-60
2022/11/14 10:27:42;;;;;;;28.70;17.92;;;;;;;;;;4977650;28;43426;-60
2022/11/14 10:30:36;;;;;;;24.45;17.00;;;;;;;;;;4980544;28;44071;-60
2022/11/14 10:33:43;;;;;;;24.13;16.95;;;;;;;;;;4974693;28;43710;-60
2022/11/14 10:36:41;;;;;;;23.77;17.40;;;;;;;;;;4958533;28;43443;-60
2022/11/14 10:39:34;;;;;;;21.65;17.70;;;;;;;;;;4978596;28;43437;-60
2022/11/14 10:42:37;;;;;;;21.60;18.33;;;;;;;;;;4973837;28;43775;-60
2022/11/14 10:45:23;;;;;;;24.95;17.77;;;;;;;;;;4978086;28;43485;-60
2022/11/14 10:48:13;;;;;;;23.80;17.55;;;;;;;;;;4979308;28;43525;-60
2022/11/14 10:51:02;;;;;;;21.85;16.27;;;;;;;;;;4974884;28;43488;-60
2022/11/14 10:53:49;;;;;;;20.60;15.90;;;;;;;;;;4975330;28;44709;-60
2022/11/14 10:56:46;;;;;;;21.73;15.95;;;;;;;;;;4982391;28;43469;-60
2022/11/14 10:59:32;;;;;;;21.65;15.75;;;;;;;;;;4980339;28;43435;-60
2022/11/14 11:02:19;;;;;;;19.70;15.68;;;;;;;;;;4978810;28;43374;-60
2022/11/14 11:05:12;;;;;;;17.48;14.68;;;;;;;;;;4980576;28;43817;-60
2022/11/14 11:11:31;;;;;;;17.17;14.48;;;;;;;;;;4975471;28;43446;-60
2022/11/14 11:14:18;;;;;;;20.13;15.15;;;;;;;;;;4977958;28;43455;-63
2022/11/14 11:17:10;;;;;;;16.92;14.43;;;;;;;;;;4977672;28;43874;-60
2022/11/14 11:20:16;;;;;;;18.15;14.85;;;;;;;;;;4973234;28;44001;-60
2022/11/14 11:23:11;;;;;;;16.73;14.45;;;;;;;;;;4974772;28;43359;-58
2022/11/14 11:26:08;;;;;;;17.60;14.13;;;;;;;;;;4982536;28;43514;-61
2022/11/14 11:29:06;;;;;;;16.05;14.30;;;;;;;;;;4973548;28;44149;-61
2022/11/14 11:31:57;;;;;;;17.98;14.80;;;;;;;;;;4974413;28;43518;-61
2022/11/14 11:34:43;;;;;;;;;;;;;;;;;;4981085;28;43347;-62
2022/11/14 11:37:35;;;;;;;16.38;14.68;;;;;;;;;;4982008;28;43676;-61
2022/11/14 11:40:25;;;;;;;16.88;14.82;;;;;;;;;;4979062;28;44110;-61
2022/11/14 11:43:23;;;;;;;16.27;14.43;;;;;;;;;;4981879;28;43555;-61
2022/11/14 11:46:43;;;;;;;14.88;13.25;;;;;;;;;;4970569;28;43357;-62
2022/11/14 11:49:30;;;;;;;16.65;13.43;;;;;;;;;;4968157;28;43614;-62
2022/11/14 11:52:20;;;;;;;14.70;13.20;;;;;;;;;;4966689;28;44064;-61
2022/11/14 11:55:17;;;;;;;15.45;13.73;;;;;;;;;;4981268;28;43433;-61
2022/11/14 11:58:06;;;;;;;14.90;12.95;;;;;;;;;;4978706;28;43499;-62
2022/11/14 12:00:56;;;;;;;14.48;12.90;;;;;;;;;;4979956;28;43676;-61
2022/11/14 12:03:47;;;;;;;14.10;12.45;;;;;;;;;;4983249;28;43905;-61
2022/11/14 12:06:38;;;;;;;14.02;12.55;;;;;;;;;;4982191;28;43507;-61
2022/11/14 12:09:28;;;;;;;13.57;12.15;;;;;;;;;;4983521;28;43446;-62
2022/11/14 12:12:38;;;;;;;14.55;13.05;;;;;;;;;;4982539;28;43714;-61
2022/11/14 12:15:46;;;;;;;13.95;12.48;;;;;;;;;;4980346;28;45210;-61
2022/11/14 12:18:39;;;;;;;14.10;11.88;;;;;;;;;;4964130;28;44651;-61
2022/11/14 12:21:37;;;;;;;13.45;12.05;;;;;;;;;;4979850;28;43500;-57
2022/11/14 12:24:40;;;;;;;13.75;12.15;;;;;;;;;;4973196;28;43587;-61
2022/11/14 12:27:35;;;;;;;13.52;12.13;;;;;;;;;;4983751;28;43792;-61
2022/11/14 12:30:23;;;;;;;13.50;11.98;;;;;;;;;;4980661;28;43583;-61
2022/11/14 12:33:11;;;;;;;12.88;11.45;;;;;;;;;;4976255;28;44071;-61
2022/11/14 12:35:59;;;;;;;12.85;11.55;;;;;;;;;;4976146;28;43521;-61
2022/11/14 12:38:47;;;;;;;14.27;11.85;;;;;;;;;;4980498;28;44637;-61
2022/11/14 12:41:36;;;;;;;13.23;11.85;;;;;;;;;;4969399;28;43470;-61
2022/11/14 12:44:28;;;;;;;12.70;11.40;;;;;;;;;;4973849;28;43403;-61
2022/11/14 12:47:19;;;;;;;12.73;11.43;;;;;;;;;;4978518;28;43545;-61
2022/11/14 12:50:25;;;;;;;12.20;11.00;;;;;;;;;;4977989;28;43983;-61
2022/11/14 12:53:44;;;;;;;12.50;11.27;;;;;;;;;;4973315;28;43745;-61
2022/11/14 12:56:31;;;;;;;12.57;11.27;;;;;;;;;;4958664;28;43410;-61
2022/11/14 12:59:40;;;;;;;12.93;11.73;;;;;;;;;;4984793;28;43536;-61
2022/11/14 13:02:42;;;;;;;12.30;11.13;;;;;;;;;;4981501;28;44055;-61
2022/11/14 13:05:38;;;;;;;11.73;10.52;;;;;;;;;;4980165;28;43436;-61
2022/11/14 13:08:30;;;;;;;12.45;10.70;;;;;;;;;;4974679;28;43578;-61
2022/11/14 13:24:49;;;;;;;11.43;10.43;;;;;;;;;;4980013;28;43512;-61
2022/11/14 13:27:36;;;;;;;12.93;10.80;;;;;;;;;;4975833;28;44860;-61
2022/11/14 13:31:12;;;;;;;11.35;10.25;;;;;;;;;;4954016;28;44003;-61
2022/11/14 13:33:59;;;;;;;11.45;10.35;;;;;;;;;;4973953;28;43411;-61
2022/11/14 13:37:01;;;;;;;11.48;10.27;;;;;;;;;;4974930;28;43494;-61
2022/11/14 13:39:47;;;;;;;;;;;;;;;;;;4976596;28;44763;-61
2022/11/14 13:42:39;;;;;;;11.35;10.32;;;;;;;;;;4951850;28;45708;-61
2022/11/14 13:45:44;;;;;;;11.23;10.23;;;;;;;;;;4975269;28;43420;-61
2022/11/14 13:48:30;;;;;;;11.73;10.63;;;;;;;;;;4972338;28;43417;-61
2022/11/14 13:51:17;;;;;;;11.20;10.20;;;;;;;;;;4956623;28;43938;-61
2022/11/14 13:54:23;;;;;;;10.82;9.82;;;;;;;;;;4977574;28;43720;-61
2022/11/14 13:57:16;;;;;;;11.35;10.35;;;;;;;;;;4970123;28;43498;-61
2022/11/14 14:00:06;;;;;;;11.02;10.02;;;;;;;;;;4971733;28;43411;-61
2022/11/14 14:02:56;;;;;;;10.60;9.60;;;;;;;;;;4976950;28;43869;-61
2022/11/14 14:06:21;;;;;;;11.18;10.13;;;;;;;;;;4980517;28;43452;-61
2022/11/14 14:09:12;;;;;;;11.30;10.20;;;;;;;;;;4921133;28;43469;-61
2022/11/14 14:12:17;;;;;;;10.98;9.98;;;;;;;;;;4922402;28;43590;-61
2022/11/14 14:15:11;;;;;;;11.13;9.98;;;;;;;;;;4971168;28;44071;-61
2022/11/14 14:18:01;;;;;;;11.85;10.65;;;;;;;;;;4972311;28;43881;-61
2022/11/14 14:20:47;;;;;;;10.43;9.48;;;;;;;;;;4974934;28;43422;-61
2022/11/14 14:23:37;;;;;;;10.73;9.73;;;;;;;;;;4973085;28;43523;-61
2022/11/14 14:26:28;;;;;;;10.73;9.73;;;;;;;;;;4979067;28;44689;-61
2022/11/14 14:29:15;;;;;;;10.82;9.80;;;;;;;;;;4981721;28;43542;-61
2022/11/14 14:32:14;;;;;;;11.07;9.98;;;;;;;;;;4984307;28;43472;-61
2022/11/14 14:35:19;;;;;;;10.77;9.77;;;;;;;;;;4977557;28;43554;-61
2022/11/14 14:38:10;;;;;;;10.32;9.35;;;;;;;;;;4982622;28;44959;-61
2022/11/14 14:40:57;;;;;;;10.38;9.38;;;;;;;;;;4977664;28;43968;-61
2022/11/14 14:43:49;;;;;;;10.40;9.40;;;;;;;;;;4980245;28;43458;-61
2022/11/14 14:46:35;;;;;;;10.00;9.10;;;;;;;;;;4978444;28;43616;-61
2022/11/14 14:49:25;;;;;;;9.85;8.95;;;;;;;;;;4980873;28;44054;-61
2022/11/14 14:52:30;;;;;;;10.40;9.48;;;;;;;;;;4978115;28;43383;-61
2022/11/14 14:55:21;;;;;;;10.88;9.80;;;;;;;;;;4980886;28;43473;-61
2022/11/14 14:58:25;;;;;;;10.45;9.45;;;;;;;;;;4984595;28;43387;-61
2022/11/14 15:01:13;;;;;;;9.90;8.90;;;;;;;;;;4971895;28;43862;-61
2022/11/14 15:04:06;;;;;;;10.52;9.45;;;;;;;;;;4978289;28;43946;-61
2022/11/14 15:06:55;;;;;;;10.68;9.68;;;;;;;;;;4982581;28;43367;-61
2022/11/14 15:09:59;;;;;;;10.07;9.00;;;;;;;;;;4984212;28;43446;-61
2022/11/14 15:12:46;;;;;;;9.82;8.82;;;;;;;;;;4981244;28;44076;-61
2022/11/14 15:15:32;;;;;;;10.02;9.13;;;;;;;;;;4982085;28;43454;-61
2022/11/14 15:18:30;;;;;;;10.30;9.30;;;;;;;;;;4978091;28;43437;-61
2022/11/14 15:21:21;;;;;;;9.80;8.90;;;;;;;;;;4961033;28;43596;-61
2022/11/14 15:24:08;;;;;;;;;;;;;;;;;;4977815;28;43914;-61
2022/11/14 15:26:54;;;;;;;9.68;8.77;;;;;;;;;;4976560;28;43400;-61
2022/11/14 15:29:48;;;;;;;9.98;9.07;;;;;;;;;;4983653;28;43579;-61
2022/11/14 15:32:34;;;;;;;9.27;8.38;;;;;;;;;;4981021;28;43445;-61
2022/11/14 15:35:24;;;;;;;9.50;8.50;;;;;;;;;;4982941;28;44065;-61
2022/11/14 15:38:12;;;;;;;9.45;8.55;;;;;;;;;;4964947;28;43478;-61
2022/11/14 15:41:22;;;;;;;8.88;8.07;;;;;;;;;;4964186;28;43498;-61
2022/11/14 15:44:27;;;;;;;9.55;8.65;;;;;;;;;;4981212;28;43512;-60
2022/11/14 15:47:29;;;;;;;8.85;7.95;;;;;;;;;;4979447;28;44059;-60
2022/11/14 15:50:15;;;;;;;9.13;8.32;;;;;;;;;;4976831;28;43422;-60
2022/11/14 15:53:03;;;;;;;9.07;8.15;;;;;;;;;;4975276;28;43403;-60
2022/11/14 15:55:51;;;;;;;8.75;7.95;;;;;;;;;;4973670;28;43554;-60
2022/11/14 15:58:37;;;;;;;9.02;8.13;;;;;;;;;;4964867;28;43791;-60
2022/11/14 16:01:25;;;;;;;9.20;8.30;;;;;;;;;;4981629;28;43458;-60
2022/11/14 16:04:22;;;;;;;9.00;8.13;;;;;;;;;;4979223;28;43498;-60
2022/11/14 16:07:13;;;;;;;8.77;7.88;;;;;;;;;;4979831;28;43558;-60
2022/11/14 16:09:59;;;;;;;9.10;8.30;;;;;;;;;;4980312;28;44040;-60
2022/11/14 16:12:46;;;;;;;9.07;8.18;;;;;;;;;;4978172;28;43410;-60
2022/11/14 16:15:37;;;;;;;8.82;8.02;;;;;;;;;;4980150;28;43453;-60
2022/11/14 16:18:24;;;;;;;8.68;7.88;;;;;;;;;;4981089;28;43612;-60
2022/11/14 16:21:13;;;;;;;8.65;7.85;;;;;;;;;;4978303;28;44436;-60
2022/11/14 16:24:00;;;;;;;8.32;7.53;;;;;;;;;;4980833;28;43369;-60
2022/11/14 16:26:46;;;;;;;8.70;7.80;;;;;;;;;;4979531;28;43554;-60
2022/11/14 16:29:33;;;;;;;8.40;7.60;;;;;;;;;;4982713;28;43620;-60
2022/11/14 16:32:19;;;;;;;8.40;7.60;;;;;;;;;;4978401;28;43976;-60
2022/11/14 16:35:26;;;;;;;8.70;7.93;;;;;;;;;;4977973;28;43521;-60
2022/11/14 16:38:13;;;;;;;7.93;7.22;;;;;;;;;;4982294;28;43486;-60
2022/11/14 16:40:59;;;;;;;8.30;7.57;;;;;;;;;;4982320;28;43462;-60
2022/11/14 16:43:46;;;;;;;8.02;7.30;;;;;;;;;;4961308;28;43721;-59
2022/11/14 16:46:32;;;;;;;7.72;7.03;;;;;;;;;;4980498;28;43442;-60
2022/11/14 16:49:19;;;;;;;8.10;7.15;;;;;;;;;;4978216;28;43913;-60
2022/11/14 16:52:07;;;;;;;8.07;7.38;;;;;;;;;;4978704;28;43534;-60
2022/11/14 16:54:53;;;;;;;8.30;7.50;;;;;;;;;;4977691;28;43881;-61
2022/11/14 16:57:40;;;;;;;8.43;7.63;;;;;;;;;;4981787;28;43514;-60
2022/11/14 17:00:26;;;;;;;8.20;7.50;;;;;;;;;;4976531;28;43434;-60
2022/11/14 17:03:13;;;;;;;7.93;7.22;;;;;;;;;;4981515;28;43597;-61